Terminal Aerodrome Forecast
Issued by NWS Jackson, KY

Home | Current Version | Previous Version | Text Only | Print | Product List | Glossary On
Versions: 1 2 3 4 5 6 7 8 9 10 11 12
000
FTUS43 KJKL 042325
TAFJKL
TAF
KJKL 042325Z 0500/0524 00000KT P6SM FEW060 FEW150
     FM051000 VRB03KT P6SM SKC
     FM051800 VRB03KT P6SM BKN250=

USA.gov is the U.S. government's official web portal to all federal, state and local government web resources and services.